createdAt,value
2023-01-04T12:32:43.870Z,8.50
2023-01-04T12:36:01.807Z,8.60
2023-01-04T12:39:05.736Z,8.60
2023-01-04T12:42:21.601Z,8.60
2023-01-04T12:45:23.467Z,8.50
2023-01-04T12:48:12.751Z,8.50
2023-01-04T12:51:32.852Z,8.50
2023-01-04T12:54:03.609Z,8.50
2023-01-04T12:57:29.429Z,8.50
2023-01-04T12:59:59.553Z,8.50
2023-01-04T13:02:28.730Z,8.50
2023-01-04T13:05:43.508Z,8.50
2023-01-04T13:07:48.064Z,8.50
2023-01-04T13:10:30.452Z,8.50
2023-01-04T13:13:26.065Z,8.50
2023-01-04T13:16:04.472Z,8.40
2023-01-04T13:18:37.438Z,8.40
2023-01-04T13:21:12.636Z,8.40
2023-01-04T13:23:41.177Z,8.50
2023-01-04T13:26:29.119Z,8.40
2023-01-04T13:29:10.074Z,8.50
2023-01-04T13:31:46.792Z,8.50
2023-01-04T13:34:24.005Z,8.50
2023-01-04T13:37:17.235Z,8.50
2023-01-04T13:39:47.192Z,8.50
2023-01-04T13:42:21.780Z,8.60
2023-01-04T13:45:42.151Z,8.60
2023-01-04T13:48:12.570Z,8.60
2023-01-04T13:50:44.225Z,8.60
2023-01-04T13:53:23.301Z,8.60
2023-01-04T13:55:52.784Z,8.60
2023-01-04T13:58:22.465Z,8.60
2023-01-04T14:00:54.428Z,8.60
2023-01-04T14:03:37.562Z,8.60
2023-01-04T14:06:21.795Z,8.70
2023-01-04T14:08:55.158Z,8.70
2023-01-04T14:11:43.099Z,8.70
2023-01-04T14:14:30.302Z,8.70
2023-01-04T14:17:18.996Z,8.70
2023-01-04T14:19:50.286Z,8.70
2023-01-04T14:22:45.144Z,8.70
2023-01-04T14:25:44.994Z,8.70
2023-01-04T14:28:27.676Z,8.70
2023-01-04T14:30:57.857Z,8.70
2023-01-04T14:33:32.159Z,8.70
2023-01-04T14:36:04.680Z,8.70
2023-01-04T14:38:36.494Z,8.70
2023-01-04T14:41:13.253Z,8.80
2023-01-04T14:43:46.276Z,8.80
2023-01-04T14:46:14.762Z,8.80
2023-01-04T14:48:44.544Z,8.80
2023-01-04T14:51:15.235Z,8.80
2023-01-04T14:53:43.528Z,8.90
2023-01-04T14:56:13.574Z,8.90
2023-01-04T14:58:41.936Z,8.90
2023-01-04T15:01:10.660Z,8.90
2023-01-04T15:03:39.301Z,8.90
2023-01-04T15:06:09.432Z,8.90
2023-01-04T15:08:37.734Z,8.90
2023-01-04T15:11:06.157Z,8.90
2023-01-04T15:13:39.804Z,8.90
2023-01-04T15:16:09.200Z,8.90
2023-01-04T15:18:37.561Z,9.00
2023-01-04T15:21:06.147Z,9.00
2023-01-04T15:23:35.829Z,9.00
2023-01-04T15:26:06.397Z,9.00
2023-01-04T15:28:34.859Z,9.00
2023-01-04T15:31:07.175Z,9.10
2023-01-04T15:33:35.739Z,9.10
2023-01-04T15:36:05.669Z,9.10
2023-01-04T15:38:35.391Z,9.10
2023-01-04T15:41:05.550Z,9.20
2023-01-04T15:43:36.480Z,9.20
2023-01-04T15:46:08.193Z,9.20
2023-01-04T15:48:36.754Z,9.20
2023-01-04T15:51:07.690Z,9.30
2023-01-04T15:53:37.565Z,9.20
2023-01-04T15:56:08.190Z,9.30
2023-01-04T15:58:36.502Z,9.30
2023-01-04T16:01:10.291Z,9.30
2023-01-04T16:03:38.741Z,9.30
2023-01-04T16:06:08.733Z,9.30
2023-01-04T16:08:38.397Z,9.30
2023-01-04T16:11:11.724Z,9.30
2023-01-04T16:13:40.691Z,9.30
2023-01-04T16:16:09.421Z,9.30
2023-01-04T16:18:37.970Z,9.30
2023-01-04T16:21:09.620Z,9.40
2023-01-04T16:23:39.371Z,9.40
2023-01-04T16:26:09.037Z,9.40
2023-01-04T16:28:37.305Z,9.40
2023-01-04T16:31:06.142Z,9.50
2023-01-04T16:33:35.589Z,9.50
2023-01-04T16:36:05.577Z,9.50
2023-01-04T16:38:38.136Z,9.50
2023-01-04T16:41:07.312Z,9.50
2023-01-04T16:43:43.674Z,9.50
2023-01-04T16:46:23.997Z,9.50
2023-01-04T16:48:53.880Z,9.50
2023-01-04T16:51:22.296Z,9.50
2023-01-04T16:53:52.113Z,9.50
2023-01-04T16:56:21.421Z,9.60
2023-01-04T16:58:49.774Z,9.60
2023-01-04T17:01:19.504Z,9.60
2023-01-04T17:03:48.383Z,9.60
2023-01-04T17:06:17.806Z,9.50
2023-01-04T17:08:46.600Z,9.50
2023-01-04T17:12:04.934Z,9.50
2023-01-04T17:14:06.054Z,9.60
2023-01-04T17:16:35.184Z,9.60
2023-01-04T17:19:03.797Z,9.70
2023-01-04T17:21:34.206Z,9.70
2023-01-04T17:24:03.326Z,9.70
2023-01-04T17:26:33.706Z,9.80
2023-01-04T17:29:02.544Z,9.70
2023-01-04T17:31:32.163Z,9.80
2023-01-04T17:34:00.555Z,9.80
2023-01-04T17:36:28.854Z,9.80
2023-01-04T17:38:57.293Z,9.80
2023-01-04T17:41:26.523Z,9.80
2023-01-04T17:44:00.166Z,9.80
2023-01-04T17:46:30.746Z,9.80
2023-01-04T17:49:21.516Z,9.80
2023-01-04T17:51:48.018Z,9.80
2023-01-04T17:54:16.833Z,9.70
2023-01-04T17:56:45.190Z,9.70
2023-01-04T17:59:15.600Z,9.70
2023-01-04T18:01:43.940Z,9.70
2023-01-04T18:04:12.401Z,9.80
2023-01-04T18:06:40.685Z,9.80
2023-01-04T18:09:09.247Z,9.80
2023-01-04T18:11:38.354Z,9.80
2023-01-04T18:14:12.068Z,9.90
2023-01-04T18:16:57.971Z,9.90
2023-01-04T18:19:27.897Z,9.90
2023-01-04T18:21:56.409Z,9.90
2023-01-04T18:24:36.099Z,9.90
2023-01-04T18:27:23.275Z,9.90
2023-01-04T18:29:52.854Z,10.00
2023-01-04T18:32:23.154Z,10.00
2023-01-04T18:34:51.475Z,10.00
2023-01-04T18:37:19.863Z,10.00
2023-01-04T18:39:48.507Z,10.10
2023-01-04T18:42:17.063Z,10.10
2023-01-04T18:44:49.635Z,10.10
2023-01-04T18:47:19.854Z,10.10
2023-01-04T18:49:50.138Z,10.20
2023-01-04T18:52:19.118Z,10.20
2023-01-04T18:54:48.537Z,10.20
2023-01-04T18:57:17.017Z,10.30
2023-01-04T18:59:49.809Z,10.30
2023-01-04T19:02:19.448Z,10.30
2023-01-04T19:04:49.328Z,10.30
2023-01-04T19:07:17.691Z,10.30
2023-01-04T19:09:46.049Z,10.20
2023-01-04T19:12:14.415Z,10.20
2023-01-04T19:14:42.808Z,10.20
2023-01-04T19:17:11.504Z,10.20
2023-01-04T19:19:39.844Z,10.20
2023-01-04T19:22:09.457Z,10.20
2023-01-04T19:24:38.540Z,10.20
2023-01-04T19:27:06.860Z,10.20
2023-01-04T19:29:36.921Z,10.20
2023-01-04T19:32:05.781Z,10.20
2023-01-04T19:34:34.047Z,10.10
2023-01-04T19:37:02.383Z,10.20
2023-01-04T19:39:32.183Z,10.20
2023-01-04T19:42:00.727Z,10.20
2023-01-04T19:44:28.956Z,10.30
2023-01-04T19:46:57.204Z,10.30
2023-01-04T19:49:25.495Z,10.40
2023-01-04T19:51:53.849Z,10.40
2023-01-04T19:54:25.521Z,10.40
2023-01-04T19:56:55.759Z,10.40
2023-01-04T19:59:24.455Z,10.50
2023-01-04T20:01:52.824Z,10.40
2023-01-04T20:04:21.310Z,10.50
2023-01-04T20:06:49.575Z,10.60
2023-01-04T20:09:24.521Z,10.60
2023-01-04T20:11:55.143Z,10.60
2023-01-04T20:14:23.617Z,10.60
2023-01-04T20:16:51.948Z,10.60
2023-01-04T20:19:20.219Z,10.60
2023-01-04T20:21:48.491Z,10.60
2023-01-04T20:24:16.847Z,10.70
2023-01-04T20:26:46.561Z,10.60
2023-01-04T20:29:16.360Z,10.70
2023-01-04T20:31:45.922Z,10.70
2023-01-04T20:34:14.424Z,10.70
2023-01-04T20:36:42.813Z,10.70
2023-01-04T20:39:11.168Z,10.70
2023-01-04T20:41:59.542Z,10.80
2023-01-04T20:44:28.716Z,10.70
2023-01-04T20:46:57.064Z,10.70
2023-01-04T20:49:25.708Z,10.70
2023-01-04T20:51:54.010Z,10.70
2023-01-04T20:54:22.353Z,10.70
2023-01-04T20:56:50.742Z,10.60
2023-01-04T20:59:19.260Z,10.60
2023-01-04T21:01:49.041Z,10.60
2023-01-04T21:04:17.738Z,10.60
2023-01-04T21:06:46.121Z,10.60
2023-01-04T21:09:14.626Z,10.60
2023-01-04T21:11:42.904Z,10.60
2023-01-04T21:14:12.072Z,10.60
2023-01-04T21:16:42.015Z,10.60
2023-01-04T21:19:11.699Z,10.60
2023-01-04T21:21:40.141Z,10.60
2023-01-04T21:24:09.210Z,10.60
2023-01-04T21:26:37.592Z,10.60
2023-01-04T21:29:05.887Z,10.60
2023-01-04T21:31:34.810Z,10.70
2023-01-04T21:34:07.909Z,10.70
2023-01-04T21:36:40.830Z,10.70
2023-01-04T21:39:09.064Z,10.70
2023-01-04T21:41:38.832Z,10.70
2023-01-04T21:44:10.051Z,10.70
2023-01-04T21:46:38.311Z,10.70
2023-01-04T21:49:06.781Z,10.70
2023-01-04T21:51:35.186Z,10.70
2023-01-04T21:54:05.373Z,10.70
2023-01-04T21:56:33.790Z,10.70
2023-01-04T21:59:02.073Z,10.70
2023-01-04T22:01:34.986Z,10.70
2023-01-04T22:04:04.002Z,10.70
2023-01-04T22:06:33.058Z,10.70
2023-01-04T22:09:01.405Z,10.70
2023-01-04T22:11:31.059Z,10.60
2023-01-04T22:13:59.293Z,10.60
2023-01-04T22:16:29.404Z,10.50
2023-01-04T22:18:57.744Z,10.50
2023-01-04T22:21:26.646Z,10.50
2023-01-04T22:23:55.288Z,10.50
2023-01-04T22:26:23.540Z,10.50
2023-01-04T22:28:53.573Z,10.50
2023-01-04T22:31:21.991Z,10.50
2023-01-04T22:33:50.273Z,10.50
2023-01-04T22:36:23.260Z,10.50
2023-01-04T22:38:52.368Z,10.50
2023-01-04T22:41:21.669Z,10.40
2023-01-04T22:43:54.246Z,10.40
2023-01-04T22:46:24.902Z,10.40
2023-01-04T22:48:53.267Z,10.40
2023-01-04T22:51:21.848Z,10.40
2023-01-04T22:53:50.140Z,10.40
2023-01-04T22:56:21.451Z,10.50
2023-01-04T22:58:53.470Z,10.50
2023-01-04T23:01:24.252Z,10.50
2023-01-04T23:03:52.841Z,10.50
2023-01-04T23:06:21.462Z,10.50
2023-01-04T23:08:49.786Z,10.50
2023-01-04T23:11:19.303Z,10.40
2023-01-04T23:13:47.626Z,10.40
2023-01-04T23:16:16.787Z,10.40
2023-01-04T23:18:46.441Z,10.40
2023-01-04T23:21:16.800Z,10.40
2023-01-04T23:23:45.120Z,10.40
2023-01-04T23:26:15.828Z,10.40
2023-01-04T23:28:44.289Z,10.30
2023-01-04T23:31:14.265Z,10.30
2023-01-04T23:33:42.668Z,10.30
2023-01-04T23:36:14.027Z,10.30
2023-01-04T23:38:42.525Z,10.30
2023-01-04T23:41:11.148Z,10.20
2023-01-04T23:43:39.833Z,10.20
2023-01-04T23:48:37.179Z,10.00
2023-01-04T23:51:05.687Z,10.00
2023-01-04T23:53:35.460Z,10.00
2023-01-04T23:56:06.469Z,10.00
2023-01-04T23:58:34.806Z,9.90
